Time;durP1;ratioP1;P1;durP2;ratioP2;P2;SDS_P1;SDS_P2;PMS_P1;PMS_P2;Temp;Humidity;BMP_temperature;BMP_pressure;BME280_temperature;BME280_humidity;BME280_pressure;Samples;Min_cycle;Max_cycle;Signal;HPM_P1;HPM_P2
2023/01/23 00:01:29;;;;;;;;;;;;;;;5.79;58.21;102263.13;4995346;28;6873;-73
2023/01/23 00:03:56;;;;;;;;;;;;;;;5.81;58.43;102271.84;4988260;28;7313;-73
2023/01/23 00:06:23;;;;;;;;;;;;;;;5.83;58.67;102270.31;4990123;28;6990;-73
2023/01/23 00:08:48;;;;;;;;;;;;;;;5.85;58.80;102271.38;4989729;28;7589;-73
2023/01/23 00:11:22;;;;;;;;;;;;;;;5.88;58.77;102271.66;4985064;28;8118;-73
2023/01/23 00:13:49;;;;;;;;;;;;;;;5.87;58.45;102274.94;4983871;28;6796;-73
2023/01/23 00:16:24;;;;;;;;;;;;;;;5.87;58.36;102272.41;4983236;28;6788;-73
2023/01/23 00:18:51;;;;;;;;;;;;;;;5.87;58.63;102266.44;5002882;28;7094;-73
2023/01/23 00:21:22;;;;;;;;;;;;;;;5.87;58.40;102266.44;4986094;28;7368;-73
2023/01/23 00:23:52;;;;;;;;;;;;;;;5.82;58.57;102264.31;5001789;28;6804;-73
2023/01/23 00:26:25;;;;;;;;;;;;;;;5.80;58.55;102270.91;4977085;28;7125;-73
2023/01/23 00:28:52;;;;;;;;;;;;;;;5.81;58.74;102274.38;4985297;28;6800;-73
2023/01/23 00:31:26;;;;;;;;;;;;;;;5.80;58.55;102273.47;4994046;28;7199;-73
2023/01/23 00:33:58;;;;;;;;;;;;;;;5.81;58.35;102271.84;4998736;28;6788;-73
2023/01/23 00:36:32;;;;;;;;;;;;;;;5.80;58.84;102272.59;4985154;28;7420;-72
2023/01/23 00:38:58;;;;;;;;;;;;;;;5.80;58.67;102270.03;4988371;28;6804;-73
2023/01/23 00:41:25;;;;;;;;;;;;;;;5.79;58.75;102273.31;4991175;28;6823;-73
2023/01/23 00:43:51;;;;;;;;;;;;;;;5.78;58.86;102271.50;4994265;28;7234;-73
2023/01/23 00:46:18;;;;;;;;;;;;;;;5.79;58.51;102269.13;4983455;28;7250;-73
2023/01/23 00:48:44;;;;;;;;;;;;;;;5.79;58.77;102268.22;5001104;28;6855;-73
2023/01/23 00:51:10;;;;;;;;;;;;;;;5.78;58.98;102272.44;4980590;28;6784;-73
2023/01/23 00:53:35;;;;;;;;;;;;;;;5.78;58.79;102281.69;4987063;28;7211;-73
2023/01/23 00:56:01;;;;;;;;;;;;;;;5.79;58.49;102283.47;4980983;28;6784;-73
2023/01/23 00:58:27;;;;;;;;;;;;;;;5.80;58.57;102276.00;4989805;28;6868;-73
2023/01/23 01:00:52;;;;;;;;;;;;;;;5.80;58.68;102287.84;4950322;28;6946;-73
2023/01/23 01:03:19;;;;;;;;;;;;;;;5.79;58.82;102286.94;4965525;28;6775;-73
2023/01/23 01:05:46;;;;;;;;;;;;;;;5.74;58.76;102283.03;4960126;28;7272;-72
2023/01/23 01:08:11;;;;;;;;;;;;;;;5.77;58.84;102283.34;4950048;28;7334;-73
2023/01/23 01:10:39;;;;;;;;;;;;;;;5.78;58.97;102286.78;4964125;28;7186;-73
2023/01/23 01:13:06;;;;;;;;;;;;;;;5.79;59.30;102288.56;4968951;28;7004;-73
2023/01/23 01:15:31;;;;;;;;;;;;;;;5.79;59.47;102289.47;4963917;28;6776;-73
2023/01/23 01:17:58;;;;;;;;;;;;;;;5.79;58.82;102291.13;4964471;28;6772;-73
2023/01/23 01:20:27;;;;;;;;;;;;;;;5.78;58.99;102297.88;4966290;28;6896;-73
2023/01/23 01:22:54;;;;;;;;;;;;;;;5.77;59.10;102292.63;4965756;28;6776;-73
2023/01/23 01:25:20;;;;;;;;;;;;;;;5.79;59.23;102302.22;4949625;28;7039;-73
2023/01/23 01:27:46;;;;;;;;;;;;;;;5.79;58.90;102301.28;4961853;28;7045;-73
2023/01/23 01:30:12;;;;;;;;;;;;;;;5.78;59.39;102302.97;4962243;28;7110;-72
2023/01/23 01:32:41;;;;;;;;;;;;;;;5.77;59.11;102313.88;4983269;28;6967;-73
2023/01/23 01:35:08;;;;;;;;;;;;;;;5.76;58.91;102308.63;4970422;28;8035;-73
2023/01/23 01:37:36;;;;;;;;;;;;;;;5.76;58.98;102311.19;4977519;28;7045;-73
2023/01/23 01:40:06;;;;;;;;;;;;;;;5.77;58.93;102308.81;4967894;28;6988;-72
2023/01/23 01:42:51;;;;;;;;;;;;;;;5.78;59.29;102312.22;4983645;28;7084;-72
2023/01/23 01:46:13;;;;;;;;;;;;;;;5.80;59.02;102313.31;4987054;28;6812;-73
2023/01/23 01:48:51;;;;;;;;;;;;;;;5.76;59.60;102317.19;4996561;28;7030;-73
2023/01/23 01:51:36;;;;;;;;;;;;;;;5.76;59.56;102317.19;5006959;28;6804;-72
2023/01/23 01:54:55;;;;;;;;;;;;;;;5.77;59.41;102312.97;5005577;28;6808;-73
2023/01/23 01:57:27;;;;;;;;;;;;;;;5.79;59.01;102311.47;4986944;28;7499;-72
2023/01/23 02:00:20;;;;;;;;;;;;;;;5.81;59.32;102312.56;5005525;28;7871;-72
2023/01/23 02:02:57;;;;;;;;;;;;;;;5.82;59.20;102306.72;4982684;28;11243;-72
2023/01/23 02:05:38;;;;;;;;;;;;;;;5.83;58.99;102303.41;4982952;28;6884;-73
2023/01/23 02:08:18;;;;;;;;;;;;;;;5.85;59.35;102304.44;4969181;28;6943;-73
2023/01/23 02:10:44;;;;;;;;;;;;;;;5.86;59.47;102296.06;4965858;28;6812;-73
2023/01/23 02:13:37;;;;;;;;;;;;;;;5.88;59.20;102298.78;4960856;28;6780;-73
2023/01/23 02:16:18;;;;;;;;;;;;;;;5.89;59.59;102301.47;4969308;28;6796;-72
2023/01/23 02:18:50;;;;;;;;;;;;;;;5.90;59.21;102299.81;4967483;28;8384;-72
2023/01/23 02:21:22;;;;;;;;;;;;;;;5.91;59.05;102294.88;4966633;28;7404;-72
2023/01/23 02:24:51;;;;;;;;;;;;;;;5.86;59.49;102285.88;4981774;28;6780;-72
2023/01/23 02:27:17;;;;;;;;;;;;;;;5.81;59.27;102293.06;4975339;28;6840;-73
2023/01/23 02:29:47;;;;;;;;;;;;;;;5.81;59.46;102287.09;4984137;28;6856;-73
2023/01/23 02:32:13;;;;;;;;;;;;;;;5.82;59.33;102283.81;4994739;28;6987;-73
2023/01/23 02:34:40;;;;;;;;;;;;;;;5.82;59.81;102281.25;4993897;28;6779;-73
2023/01/23 02:37:08;;;;;;;;;;;;;;;5.83;59.42;102283.94;4982992;28;6792;-73
2023/01/23 02:39:34;;;;;;;;;;;;;;;5.85;59.26;102276.47;4990830;28;6981;-73
2023/01/23 02:42:01;;;;;;;;;;;;;;;5.82;59.10;102273.63;4988058;28;7179;-73
2023/01/23 02:44:30;;;;;;;;;;;;;;;5.79;59.34;102291.13;4989371;28;7010;-73
2023/01/23 02:47:00;;;;;;;;;;;;;;;5.78;59.69;102284.25;4996735;28;6792;-73
2023/01/23 02:49:27;;;;;;;;;;;;;;;5.76;59.62;102285.75;4982091;28;6867;-73
2023/01/23 02:51:54;;;;;;;;;;;;;;;5.74;59.58;102288.13;4970654;28;7252;-73
2023/01/23 02:54:22;;;;;;;;;;;;;;;5.74;59.53;102295.75;4972869;28;6812;-73
2023/01/23 02:56:48;;;;;;;;;;;;;;;5.73;59.68;102293.09;4985696;28;6955;-73
2023/01/23 03:01:59;;;;;;;;;;;;;;;5.71;59.67;102290.38;4983242;28;7533;-73
2023/01/23 03:04:24;;;;;;;;;;;;;;;5.72;60.18;102296.38;5004105;28;6776;-74
2023/01/23 03:06:50;;;;;;;;;;;;;;;5.74;60.09;102299.97;4988959;28;6768;-74
2023/01/23 03:09:17;;;;;;;;;;;;;;;5.75;59.90;102296.66;4968553;28;7241;-73
2023/01/23 03:11:45;;;;;;;;;;;;;;;5.75;59.64;102291.59;4969902;28;7139;-74
2023/01/23 03:14:17;;;;;;;;;;;;;;;5.76;59.91;102293.38;4983366;28;7334;-73
2023/01/23 03:16:48;;;;;;;;;;;;;;;5.78;59.80;102296.97;4973759;28;7061;-73
2023/01/23 03:19:15;;;;;;;;;;;;;;;5.80;59.98;102295.50;4984464;28;8319;-74
2023/01/23 03:21:41;;;;;;;;;;;;;;;5.80;59.72;102290.41;4983599;28;6863;-71
2023/01/23 03:24:10;;;;;;;;;;;;;;;5.80;59.85;102291.28;4988016;28;6768;-73
2023/01/23 03:26:41;;;;;;;;;;;;;;;5.80;59.98;102285.31;4982955;28;9830;-71
2023/01/23 03:32:08;;;;;;;;;;;;;;;5.76;59.93;102285.75;4988485;28;7739;-71
2023/01/23 03:34:35;;;;;;;;;;;;;;;5.76;59.80;102295.91;4992120;28;6976;-71
2023/01/23 03:37:02;;;;;;;;;;;;;;;5.76;59.85;102306.09;4961677;28;7021;-71
2023/01/23 03:42:12;;;;;;;;;;;;;;;5.76;60.42;102295.91;4996770;28;6784;-72
2023/01/23 03:44:38;;;;;;;;;;;;;;;5.78;59.85;102296.97;4978016;28;6764;-72
2023/01/23 03:47:04;;;;;;;;;;;;;;;5.80;60.22;102298.03;4987108;28;6768;-72
2023/01/23 03:49:31;;;;;;;;;;;;;;;5.83;59.76;102300.88;4974917;28;7303;-73
2023/01/23 03:51:58;;;;;;;;;;;;;;;5.86;59.92;102306.25;4994691;28;9062;-72
2023/01/23 03:54:23;;;;;;;;;;;;;;;5.88;59.82;102314.03;5002198;28;7039;-72
2023/01/23 03:56:49;;;;;;;;;;;;;;;5.89;59.89;102308.19;4985063;28;6832;-72
2023/01/23 03:59:15;;;;;;;;;;;;;;;5.90;59.61;102316.00;5003627;28;7304;-73
2023/01/23 04:01:40;;;;;;;;;;;;;;;5.89;59.84;102314.19;4981772;28;6848;-72
2023/01/23 04:04:06;;;;;;;;;;;;;;;5.89;59.63;102321.84;4967941;28;7157;-72
2023/01/23 04:06:32;;;;;;;;;;;;;;;5.90;59.80;102318.53;5001602;28;6775;-72
2023/01/23 04:08:58;;;;;;;;;;;;;;;5.89;59.58;102315.84;4985439;28;6950;-72
2023/01/23 04:11:25;;;;;;;;;;;;;;;5.88;59.92;102314.03;4983838;28;7342;-72
2023/01/23 04:13:52;;;;;;;;;;;;;;;5.87;59.49;102312.25;4983729;28;6954;-72
2023/01/23 04:16:18;;;;;;;;;;;;;;;5.87;59.67;102307.16;4976779;28;6979;-72
2023/01/23 04:18:43;;;;;;;;;;;;;;;5.84;59.54;102312.84;4997301;28;7996;-72
2023/01/23 04:21:09;;;;;;;;;;;;;;;5.86;59.99;102308.78;4994264;28;6780;-72
2023/01/23 04:23:35;;;;;;;;;;;;;;;5.88;59.58;102303.88;5002753;28;6839;-72
2023/01/23 04:26:01;;;;;;;;;;;;;;;5.91;59.61;102309.25;4996027;28;6812;-72
2023/01/23 04:28:27;;;;;;;;;;;;;;;5.92;59.78;102304.31;4986406;28;7125;-72
2023/01/23 04:30:53;;;;;;;;;;;;;;;5.90;59.58;102302.34;4998120;28;6802;-72
2023/01/23 04:33:19;;;;;;;;;;;;;;;5.88;59.66;102320.00;5001900;28;6835;-72
2023/01/23 04:35:57;;;;;;;;;;;;;;;5.90;59.62;102320.16;4984807;28;6856;-72
2023/01/23 04:38:25;;;;;;;;;;;;;;;5.89;59.55;102313.28;4987464;28;6935;-72
2023/01/23 04:40:51;;;;;;;;;;;;;;;5.90;59.53;102307.44;4990700;28;7044;-72
2023/01/23 04:43:17;;;;;;;;;;;;;;;5.92;59.61;102305.94;4982697;28;7007;-72
2023/01/23 04:45:43;;;;;;;;;;;;;;;5.90;59.66;102305.81;4977503;28;6808;-72
2023/01/23 04:48:11;;;;;;;;;;;;;;;5.91;59.65;102310.16;4979614;28;6974;-72
2023/01/23 04:50:38;;;;;;;;;;;;;;;5.92;59.78;102318.66;4980387;28;6856;-72
2023/01/23 04:53:04;;;;;;;;;;;;;;;5.93;59.45;102307.72;4999631;28;6796;-72
2023/01/23 04:55:30;;;;;;;;;;;;;;;5.92;59.76;102311.94;4980876;28;7003;-72
2023/01/23 04:57:55;;;;;;;;;;;;;;;5.90;59.80;102316.00;4980861;28;6978;-72
2023/01/23 05:00:22;;;;;;;;;;;;;;;5.88;59.92;102312.38;4995787;28;8043;-72
2023/01/23 05:02:49;;;;;;;;;;;;;;;5.88;59.94;102317.47;5000579;28;6792;-72
2023/01/23 05:05:16;;;;;;;;;;;;;;;5.90;59.56;102317.63;5000954;28;6792;-72
2023/01/23 05:07:43;;;;;;;;;;;;;;;5.90;59.72;102317.63;4979054;28;6804;-72
2023/01/23 05:10:09;;;;;;;;;;;;;;;5.89;59.65;102321.84;4972751;28;7071;-72
2023/01/23 05:12:36;;;;;;;;;;;;;;;5.89;59.78;102321.84;5000322;28;6796;-72
2023/01/23 05:15:01;;;;;;;;;;;;;;;5.87;60.21;102320.75;4967990;28;7252;-72
2023/01/23 05:17:27;;;;;;;;;;;;;;;5.84;59.93;102312.84;4992534;28;7980;-72
2023/01/23 05:19:52;;;;;;;;;;;;;;;5.82;59.99;102315.22;4984739;28;7215;-72
2023/01/23 05:22:18;;;;;;;;;;;;;;;5.81;59.91;102323.59;4979334;28;6929;-72
2023/01/23 05:24:44;;;;;;;;;;;;;;;5.80;60.14;102323.47;4986053;28;7317;-72
2023/01/23 05:27:11;;;;;;;;;;;;;;;5.78;60.04;102324.94;4980031;28;7010;-72
2023/01/23 05:29:36;;;;;;;;;;;;;;;5.77;59.79;102330.78;4983498;28;6976;-72
2023/01/23 05:32:02;;;;;;;;;;;;;;;5.74;59.63;102327.94;4985580;28;6776;-72
2023/01/23 05:34:28;;;;;;;;;;;;;;;5.73;60.16;102336.34;4995095;28;6856;-72
2023/01/23 05:36:54;;;;;;;;;;;;;;;5.73;59.93;102337.22;4978332;28;7840;-72
2023/01/23 05:39:19;;;;;;;;;;;;;;;5.73;60.01;102339.75;5002222;28;6792;-72
2023/01/23 05:41:45;;;;;;;;;;;;;;;5.76;60.04;102339.19;5001260;28;6788;-72
2023/01/23 05:44:10;;;;;;;;;;;;;;;5.79;60.09;102345.47;4960338;28;7005;-72
2023/01/23 05:46:36;;;;;;;;;;;;;;;5.82;60.03;102344.88;4994658;28;7634;-72
2023/01/23 05:49:02;;;;;;;;;;;;;;;5.87;59.94;102337.69;4986892;28;7173;-72
2023/01/23 05:51:31;;;;;;;;;;;;;;;5.88;59.81;102339.50;4983982;28;6780;-72
2023/01/23 05:53:58;;;;;;;;;;;;;;;5.87;59.82;102338.59;5003403;28;7105;-72
2023/01/23 05:56:24;;;;;;;;;;;;;;;5.87;59.90;102347.88;4975745;28;7072;-72
2023/01/23 05:58:50;;;;;;;;;;;;;;;5.86;59.59;102346.09;4968244;28;7010;-73
2023/01/23 06:01:16;;;;;;;;;;;;;;;5.86;59.89;102343.53;4986798;28;7274;-72
2023/01/23 06:03:42;;;;;;;;;;;;;;;5.86;59.83;102346.97;4978817;28;7010;-72
2023/01/23 06:06:08;;;;;;;;;;;;;;;5.87;59.89;102345.34;5000886;28;6941;-72
2023/01/23 06:08:34;;;;;;;;;;;;;;;5.87;59.48;102353.84;5002468;28;6927;-72
2023/01/23 06:10:59;;;;;;;;;;;;;;;5.87;59.84;102352.97;5004192;28;7179;-72
2023/01/23 06:13:29;;;;;;;;;;;;;;;5.88;59.85;102354.75;4990328;28;6957;-72
2023/01/23 06:15:56;;;;;;;;;;;;;;;5.87;59.90;102353.84;4986740;28;6776;-72
2023/01/23 06:18:22;;;;;;;;;;;;;;;5.89;59.75;102357.47;4983753;28;6795;-72
2023/01/23 06:20:48;;;;;;;;;;;;;;;5.89;59.71;102354.94;5002143;28;6784;-72
2023/01/23 06:23:14;;;;;;;;;;;;;;;5.89;59.73;102357.47;5002911;28;6767;-72
2023/01/23 06:25:41;;;;;;;;;;;;;;;5.91;59.61;102362.69;4986280;28;6808;-72
2023/01/23 06:28:06;;;;;;;;;;;;;;;5.93;59.67;102363.72;4988510;28;7149;-72
2023/01/23 06:30:32;;;;;;;;;;;;;;;5.93;59.91;102369.72;4987056;28;6991;-72
2023/01/23 06:32:58;;;;;;;;;;;;;;;5.94;59.81;102371.53;5000854;28;6768;-72
2023/01/23 06:35:24;;;;;;;;;;;;;;;5.97;59.63;102381.13;4996186;28;6776;-72
2023/01/23 06:37:49;;;;;;;;;;;;;;;5.98;59.86;102378.72;5004871;28;7820;-72
2023/01/23 06:40:16;;;;;;;;;;;;;;;6.02;59.46;102374.84;4997397;28;6832;-72
2023/01/23 06:42:42;;;;;;;;;;;;;;;6.03;59.93;102378.31;4967677;28;7290;-72
2023/01/23 06:45:10;;;;;;;;;;;;;;;6.04;59.26;102390.28;5005829;28;7233;-72
2023/01/23 06:47:36;;;;;;;;;;;;;;;6.02;59.31;102384.16;4971872;28;7349;-72
2023/01/23 06:50:03;;;;;;;;;;;;;;;6.00;59.33;102390.72;4983861;28;7160;-72
2023/01/23 06:52:29;;;;;;;;;;;;;;;5.97;59.46;102398.94;5000445;28;6887;-72
2023/01/23 06:54:55;;;;;;;;;;;;;;;5.95;59.65;102396.22;4972655;28;6990;-72
2023/01/23 06:57:20;;;;;;;;;;;;;;;5.94;59.40;102407.16;4985457;28;7844;-72
2023/01/23 06:59:46;;;;;;;;;;;;;;;5.95;59.57;102414.06;4983096;28;6990;-72
2023/01/23 07:02:12;;;;;;;;;;;;;;;5.96;59.43;102412.41;5004910;28;7187;-73
2023/01/23 07:04:38;;;;;;;;;;;;;;;5.96;59.42;102426.03;4997099;28;7352;-72
2023/01/23 07:07:04;;;;;;;;;;;;;;;5.96;59.50;102420.06;4970964;28;7020;-72
2023/01/23 07:09:30;;;;;;;;;;;;;;;5.94;59.38;102427.53;4989447;28;7122;-72
2023/01/23 07:11:56;;;;;;;;;;;;;;;5.92;59.63;102413.75;4981886;28;6784;-72
2023/01/23 07:14:21;;;;;;;;;;;;;;;5.92;59.39;102418.84;5000883;28;6768;-72
2023/01/23 07:16:47;;;;;;;;;;;;;;;5.88;59.37;102424.38;5006453;28;7275;-72
2023/01/23 07:19:13;;;;;;;;;;;;;;;5.87;59.33;102430.19;5005395;28;6776;-72
2023/01/23 07:21:39;;;;;;;;;;;;;;;5.87;59.63;102435.28;4995726;28;6783;-72
2023/01/23 07:24:05;;;;;;;;;;;;;;;5.86;59.78;102441.13;5005945;28;7161;-72
2023/01/23 07:26:31;;;;;;;;;;;;;;;5.86;59.59;102442.78;5005362;28;6784;-72
2023/01/23 07:28:56;;;;;;;;;;;;;;;5.87;59.70;102442.06;5002377;28;6780;-72
2023/01/23 07:31:22;;;;;;;;;;;;;;;5.89;59.61;102440.56;4987923;28;6784;-72
2023/01/23 07:33:48;;;;;;;;;;;;;;;5.89;59.55;102451.66;4986961;28;6979;-72
2023/01/23 07:36:13;;;;;;;;;;;;;;;5.91;59.45;102454.31;5002915;28;6906;-72
2023/01/23 07:38:40;;;;;;;;;;;;;;;5.91;59.46;102450.16;4983934;28;6771;-72
2023/01/23 07:41:06;;;;;;;;;;;;;;;5.92;59.44;102449.41;4988092;28;6959;-72
2023/01/23 07:43:32;;;;;;;;;;;;;;;5.94;59.31;102447.91;4985122;28;7163;-72
2023/01/23 07:45:59;;;;;;;;;;;;;;;5.95;59.53;102448.81;4987868;28;7197;-72
2023/01/23 07:48:24;;;;;;;;;;;;;;;5.98;59.60;102456.75;4982576;28;6796;-72
2023/01/23 07:50:50;;;;;;;;;;;;;;;5.98;59.47;102457.63;4981373;28;6852;-72
2023/01/23 07:53:16;;;;;;;;;;;;;;;6.03;59.49;102462.31;4997593;28;6797;-72
2023/01/23 07:55:41;;;;;;;;;;;;;;;6.05;59.26;102454.09;5004033;28;6784;-72
2023/01/23 07:58:07;;;;;;;;;;;;;;;6.08;59.25;102454.41;4986949;28;6844;-72
2023/01/23 08:00:33;;;;;;;;;;;;;;;6.12;59.39;102458.16;4995644;28;7534;-72
2023/01/23 08:02:58;;;;;;;;;;;;;;;6.15;59.06;102463.53;4995634;28;6768;-72
2023/01/23 08:05:27;;;;;;;;;;;;;;;6.17;59.05;102454.38;4987346;28;7220;-72
2023/01/23 08:07:52;;;;;;;;;;;;;;;6.19;59.41;102457.09;4986614;28;7106;-72
2023/01/23 08:10:18;;;;;;;;;;;;;;;6.21;58.70;102456.50;4974318;28;7294;-72
2023/01/23 08:12:44;;;;;;;;;;;;;;;6.23;59.23;102455.00;4996534;28;7221;-72
2023/01/23 08:15:12;;;;;;;;;;;;;;;6.23;58.93;102449.91;5000609;28;7428;-72
2023/01/23 08:17:37;;;;;;;;;;;;;;;6.24;59.13;102455.91;4973480;28;6867;-72
2023/01/23 08:20:03;;;;;;;;;;;;;;;6.26;58.92;102456.97;4983330;28;6983;-72
2023/01/23 08:22:29;;;;;;;;;;;;;;;6.28;59.16;102454.53;4983553;28;6958;-72
2023/01/23 08:24:55;;;;;;;;;;;;;;;6.30;59.08;102453.06;4991278;28;7073;-72
2023/01/23 08:27:20;;;;;;;;;;;;;;;6.33;59.00;102458.47;4976972;28;7922;-72
2023/01/23 08:29:46;;;;;;;;;;;;;;;6.34;58.89;102457.72;4984031;28;7239;-72
2023/01/23 08:32:12;;;;;;;;;;;;;;;6.37;59.03;102461.47;4981795;28;6940;-72
2023/01/23 08:34:38;;;;;;;;;;;;;;;6.37;58.83;102460.53;4993977;28;6954;-72
2023/01/23 08:37:03;;;;;;;;;;;;;;;6.39;59.03;102466.72;5004320;28;6799;-72
2023/01/23 08:39:29;;;;;;;;;;;;;;;6.41;58.87;102462.66;4982175;28;6939;-72
2023/01/23 08:41:54;;;;;;;;;;;;;;;6.42;58.96;102474.66;4985440;28;6992;-72
2023/01/23 08:44:20;;;;;;;;;;;;;;;6.44;58.30;102473.16;4998115;28;6852;-72
2023/01/23 08:46:46;;;;;;;;;;;;;;;6.47;58.75;102472.56;4987159;28;8073;-72
2023/01/23 08:49:12;;;;;;;;;;;;;;;6.48;58.73;102475.25;4986703;28;6772;-72
2023/01/23 08:51:37;;;;;;;;;;;;;;;6.49;58.33;102468.50;4986985;28;6788;-72
2023/01/23 08:54:04;;;;;;;;;;;;;;;6.50;58.84;102468.66;4971276;28;7157;-72
2023/01/23 08:56:30;;;;;;;;;;;;;;;6.53;58.22;102473.16;5004082;28;6780;-72
2023/01/23 08:58:56;;;;;;;;;;;;;;;6.55;58.74;102474.19;5003622;28;7362;-72
2023/01/23 09:01:25;;;;;;;;;;;;;;;6.56;58.42;102465.81;4984125;28;6796;-72
2023/01/23 09:03:51;;;;;;;;;;;;;;;6.59;58.25;102472.88;4985473;28;6792;-72
2023/01/23 09:06:19;;;;;;;;;;;;;;;6.61;58.58;102471.34;4969539;28;6992;-72
2023/01/23 09:08:45;;;;;;;;;;;;;;;6.64;58.47;102466.53;4989914;28;6972;-72
2023/01/23 09:11:13;;;;;;;;;;;;;;;6.64;58.62;102470.00;4986875;28;7118;-72
2023/01/23 09:13:39;;;;;;;;;;;;;;;6.68;58.73;102471.22;4965147;28;7283;-72
2023/01/23 09:16:07;;;;;;;;;;;;;;;6.70;58.07;102479.88;4985376;28;7999;-72
2023/01/23 09:18:33;;;;;;;;;;;;;;;6.72;58.61;102470.75;4983620;28;6936;-72
2023/01/23 09:20:59;;;;;;;;;;;;;;;6.75;57.94;102475.25;5001840;28;6844;-72
2023/01/23 09:23:25;;;;;;;;;;;;;;;6.77;57.92;102477.19;4988813;28;6884;-72
2023/01/23 09:25:50;;;;;;;;;;;;;;;6.78;58.03;102489.19;4985083;28;6849;-72
2023/01/23 09:28:16;;;;;;;;;;;;;;;6.79;58.48;102485.88;4977542;28;7904;-72
2023/01/23 09:30:42;;;;;;;;;;;;;;;6.81;58.00;102486.03;4998741;28;6839;-72
2023/01/23 09:33:07;;;;;;;;;;;;;;;6.81;58.03;102484.38;4977920;28;6784;-72
2023/01/23 09:35:34;;;;;;;;;;;;;;;6.81;57.51;102489.47;4981207;28;6843;-72
2023/01/23 09:38:00;;;;;;;;;;;;;;;6.83;58.32;102491.28;4978325;28;7222;-72
2023/01/23 09:40:49;;;;;;;;;;;;;;;6.83;57.78;102502.38;4983132;28;7193;-72
2023/01/23 09:43:29;;;;;;;;;;;;;;;6.85;57.74;102500.88;4992124;28;6827;-72
2023/01/23 09:46:19;;;;;;;;;;;;;;;6.91;57.53;102505.66;4985289;28;7143;-72
2023/01/23 09:49:20;;;;;;;;;;;;;;;6.95;58.16;102505.19;4982237;28;7763;-72
2023/01/23 09:51:57;;;;;;;;;;;;;;;7.01;58.39;102504.91;4996185;28;7154;-72
2023/01/23 09:54:46;;;;;;;;;;;;;;;7.06;58.56;102514.81;4999511;28;6808;-72
2023/01/23 09:57:35;;;;;;;;;;;;;;;7.12;57.46;102511.03;4992541;28;7488;-72
2023/01/23 10:00:11;;;;;;;;;;;;;;;7.19;58.28;102510.88;4978960;28;8196;-72
2023/01/23 10:02:41;;;;;;;;;;;;;;;7.28;58.00;102506.63;4981567;28;11488;-73
2023/01/23 10:05:17;;;;;;;;;;;;;;;7.34;57.76;102507.25;4993128;28;6866;-73
2023/01/23 10:08:01;;;;;;;;;;;;;;;7.42;56.86;102507.03;4999019;28;7537;-73
2023/01/23 10:10:51;;;;;;;;;;;;;;;7.45;57.32;102507.34;4987973;28;6868;-72
2023/01/23 10:13:34;;;;;;;;;;;;;;;7.46;57.66;102504.03;4993411;28;7423;-73
2023/01/23 10:16:51;;;;;;;;;;;;;;;7.48;57.58;102502.53;5004303;28;7175;-72
2023/01/23 10:19:56;;;;;;;;;;;;;;;7.49;56.92;102499.22;4985462;28;6824;-73
2023/01/23 10:22:49;;;;;;;;;;;;;;;7.55;57.68;102493.78;4984823;28;6988;-72
2023/01/23 10:25:31;;;;;;;;;;;;;;;7.60;56.59;102490.91;4978226;28;7355;-73
2023/01/23 10:28:38;;;;;;;;;;;;;;;7.68;56.59;102495.84;4986153;28;6800;-73
2023/01/23 10:31:19;;;;;;;;;;;;;;;7.75;56.64;102495.66;5003737;28;7293;-72
2023/01/23 10:33:57;;;;;;;;;;;;;;;7.81;56.82;102491.09;5000106;28;6961;-73
2023/01/23 10:37:18;;;;;;;;;;;;;;;7.88;56.11;102490.06;4982343;28;7221;-72
2023/01/23 10:39:56;;;;;;;;;;;;;;;7.90;56.50;102484.31;5000025;28;6832;-73
2023/01/23 10:42:26;;;;;;;;;;;;;;;7.92;56.67;102487.91;4989447;28;6986;-72
2023/01/23 10:44:52;;;;;;;;;;;;;;;7.96;55.52;102488.19;4985137;28;6879;-73
2023/01/23 10:47:57;;;;;;;;;;;;;;;7.97;56.75;102493.44;4989845;28;6819;-72
2023/01/23 10:50:38;;;;;;;;;;;;;;;7.99;55.29;102496.13;4926706;28;8191;-73
2023/01/23 10:53:19;;;;;;;;;;;;;;;7.99;55.54;102498.69;4933656;28;7732;-73
2023/01/23 10:55:46;;;;;;;;;;;;;;;8.00;55.04;102497.91;4974191;28;6946;-73
2023/01/23 10:58:38;;;;;;;;;;;;;;;7.99;56.44;102493.56;4972138;28;7317;-73
2023/01/23 11:01:22;;;;;;;;;;;;;;;7.98;55.70;102500.34;4997148;28;6843;-73
2023/01/23 11:03:48;;;;;;;;;;;;;;;7.99;55.73;102503.78;4992664;28;6831;-73
2023/01/23 11:06:24;;;;;;;;;;;;;;;8.01;56.12;102495.53;4957397;28;6942;-73
2023/01/23 11:09:01;;;;;;;;;;;;;;;8.02;55.01;102499.88;4978762;28;7384;-73
2023/01/23 11:11:31;;;;;;;;;;;;;;;8.05;55.35;102502.69;4982587;28;7196;-73
2023/01/23 11:14:21;;;;;;;;;;;;;;;8.09;56.05;102498.78;4974672;28;7060;-73
2023/01/23 11:17:02;;;;;;;;;;;;;;;8.13;55.50;102489.72;4986135;28;7428;-72
2023/01/23 11:19:32;;;;;;;;;;;;;;;8.18;54.89;102493.63;4989236;28;7448;-72
2023/01/23 11:22:03;;;;;;;;;;;;;;;8.22;55.78;102499.91;4970508;28;7026;-73
2023/01/23 11:24:38;;;;;;;;;;;;;;;8.24;55.55;102495.84;4993616;28;8568;-73
2023/01/23 11:27:18;;;;;;;;;;;;;;;8.24;54.97;102491.59;4996745;28;7102;-72
2023/01/23 11:29:57;;;;;;;;;;;;;;;8.24;54.92;102493.28;4971067;28;7182;-73
2023/01/23 11:32:23;;;;;;;;;;;;;;;8.24;55.13;102494.16;4986077;28;7608;-73
2023/01/23 11:35:02;;;;;;;;;;;;;;;8.27;55.50;102498.66;4990823;28;6796;-73
2023/01/23 11:37:36;;;;;;;;;;;;;;;8.30;55.71;102489.63;4978756;28;7284;-73
2023/01/23 11:40:07;;;;;;;;;;;;;;;8.32;54.90;102490.66;4988607;28;7381;-72
2023/01/23 11:42:39;;;;;;;;;;;;;;;8.34;55.34;102485.69;4994085;28;7050;-73
2023/01/23 11:45:30;;;;;;;;;;;;;;;8.36;54.76;102473.94;4992179;28;7282;-73
2023/01/23 11:48:40;;;;;;;;;;;;;;;8.38;54.27;102461.31;4976896;28;6792;-73
2023/01/23 11:51:28;;;;;;;;;;;;;;;8.41;55.44;102466.69;4969849;28;7801;-73
2023/01/23 11:54:11;;;;;;;;;;;;;;;8.46;55.39;102468.91;4996171;28;6811;-73
2023/01/23 11:57:10;;;;;;;;;;;;;;;8.50;54.66;102467.53;5002477;28;6892;-73
2023/01/23 12:00:15;;;;;;;;;;;;;;;8.51;54.33;102469.34;4985101;28;7050;-73
2023/01/23 12:03:20;;;;;;;;;;;;;;;8.50;54.97;102471.72;4990805;28;11600;-73
2023/01/23 12:06:08;;;;;;;;;;;;;;;8.44;54.77;102474.63;5004254;28;6824;-73
2023/01/23 12:08:36;;;;;;;;;;;;;;;8.39;54.94;102476.75;4986225;28;6955;-73
2023/01/23 12:11:15;;;;;;;;;;;;;;;8.33;54.06;102474.56;5005749;28;6969;-73
2023/01/23 12:14:19;;;;;;;;;;;;;;;8.29;54.23;102479.25;4982920;28;7028;-72
2023/01/23 12:16:59;;;;;;;;;;;;;;;8.27;54.22;102484.25;5002625;28;6820;-73
2023/01/23 12:20:05;;;;;;;;;;;;;;;8.27;53.83;102483.31;4982838;28;7184;-73
2023/01/23 12:23:04;;;;;;;;;;;;;;;8.23;55.13;102484.69;4986354;28;7045;-72
2023/01/23 12:25:40;;;;;;;;;;;;;;;8.25;54.71;102482.31;4986376;28;7070;-73
2023/01/23 12:28:11;;;;;;;;;;;;;;;8.29;54.71;102481.81;4973651;28;7243;-73
2023/01/23 12:30:56;;;;;;;;;;;;;;;8.32;54.85;102471.88;4991870;28;8526;-73
2023/01/23 12:34:05;;;;;;;;;;;;;;;8.33;53.84;102473.69;4987680;28;7225;-72
2023/01/23 12:36:42;;;;;;;;;;;;;;;8.30;54.10;102473.38;4995117;28;7236;-73
2023/01/23 12:39:47;;;;;;;;;;;;;;;8.24;54.17;102466.06;4977876;28;8769;-73
2023/01/23 12:42:27;;;;;;;;;;;;;;;8.19;54.57;102468.19;5000422;28;6792;-72
2023/01/23 12:45:09;;;;;;;;;;;;;;;8.17;54.14;102471.41;4987244;28;7078;-73
2023/01/23 12:48:13;;;;;;;;;;;;;;;8.11;54.08;102473.38;4968694;28;6998;-73
2023/01/23 12:50:49;;;;;;;;;;;;;;;8.07;53.68;102474.75;4978242;28;7944;-73
2023/01/23 12:53:20;;;;;;;;;;;;;;;8.06;53.91;102478.06;4999547;28;7224;-73
2023/01/23 12:56:09;;;;;;;;;;;;;;;8.04;54.45;102477.03;4994048;28;6804;-73
2023/01/23 12:58:45;;;;;;;;;;;;;;;8.00;54.79;102470.75;4984152;28;7047;-73
2023/01/23 13:01:42;;;;;;;;;;;;;;;8.01;54.73;102471.63;4987014;28;6828;-73
2023/01/23 13:04:18;;;;;;;;;;;;;;;8.03;54.35;102473.56;5001965;28;6908;-73
2023/01/23 13:07:02;;;;;;;;;;;;;;;8.04;54.17;102462.59;4990680;28;7183;-73
2023/01/23 13:09:49;;;;;;;;;;;;;;;8.05;55.26;102468.59;4993371;28;7185;-73
2023/01/23 13:12:26;;;;;;;;;;;;;;;8.07;53.90;102461.97;5002568;28;6879;-73
2023/01/23 13:15:22;;;;;;;;;;;;;;;8.09;54.35;102463.00;4995363;28;6985;-73
2023/01/23 13:18:01;;;;;;;;;;;;;;;8.09;54.19;102463.00;4995581;28;7118;-72
2023/01/23 13:23:37;;;;;;;;;;;;;;;8.08;54.54;102471.44;4926436;28;7110;-73
2023/01/23 13:26:15;;;;;;;;;;;;;;;8.07;54.32;102464.53;4982500;28;6824;-73
2023/01/23 13:28:47;;;;;;;;;;;;;;;8.08;54.94;102470.56;4999008;28;6914;-73
2023/01/23 13:31:45;;;;;;;;;;;;;;;8.08;54.86;102468.88;4982440;28;7078;-73
2023/01/23 13:34:16;;;;;;;;;;;;;;;8.09;53.64;102474.91;4967307;28;7186;-73
2023/01/23 13:36:47;;;;;;;;;;;;;;;8.09;54.84;102478.34;5001951;28;7179;-73